createdAt,value
2019-01-28T00:00:31.229Z,65.86
2019-01-28T00:03:04.020Z,66.45
2019-01-28T00:05:35.238Z,66.12
2019-01-28T00:08:06.484Z,65.34
2019-01-28T00:10:37.852Z,65.27
2019-01-28T00:13:08.915Z,65.62
2019-01-28T00:15:40.922Z,65.90
2019-01-28T00:18:12.017Z,66.02
2019-01-28T00:20:43.118Z,65.51
2019-01-28T00:23:14.178Z,65.15
2019-01-28T00:25:45.321Z,64.63
2019-01-28T00:28:16.373Z,64.64
2019-01-28T00:30:47.724Z,64.37
2019-01-28T00:33:19.127Z,64.78
2019-01-28T00:35:50.520Z,64.28
2019-01-28T00:38:21.497Z,64.13
2019-01-28T00:40:52.501Z,64.51
2019-01-28T00:43:23.483Z,64.65
2019-01-28T00:45:54.784Z,64.25
2019-01-28T00:48:25.846Z,63.50
2019-01-28T00:50:58.387Z,63.88
2019-01-28T00:55:59.710Z,64.17
2019-01-28T00:58:30.724Z,64.41
2019-01-28T01:01:02.053Z,64.20
2019-01-28T01:03:33.367Z,64.75
2019-01-28T01:06:04.572Z,64.43
2019-01-28T01:08:36.428Z,64.37
2019-01-28T01:11:07.756Z,63.80
2019-01-28T01:13:38.745Z,63.72
2019-01-28T01:16:09.879Z,64.25
2019-01-28T01:18:41.224Z,64.01
2019-01-28T01:21:12.275Z,64.06
2019-01-28T01:23:43.309Z,64.32
2019-01-28T01:26:14.471Z,63.62
2019-01-28T01:28:45.861Z,63.69
2019-01-28T01:31:16.914Z,63.38
2019-01-28T01:33:47.917Z,62.77
2019-01-28T01:36:19.874Z,62.94
2019-01-28T01:38:50.942Z,63.47
2019-01-28T01:41:23.428Z,62.92
2019-01-28T01:43:55.089Z,62.75
2019-01-28T01:46:26.146Z,62.70
2019-01-28T01:48:57.471Z,62.71
2019-01-28T01:51:30.374Z,62.26
2019-01-28T01:54:01.847Z,62.38
2019-01-28T01:56:33.412Z,62.56
2019-01-28T01:59:04.558Z,62.49
2019-01-28T02:01:35.607Z,62.10
2019-01-28T02:04:06.679Z,62.21
2019-01-28T02:06:37.717Z,61.73
2019-01-28T02:09:10.121Z,61.71
2019-01-28T02:11:41.420Z,61.43
2019-01-28T02:14:12.408Z,61.20
2019-01-28T02:16:43.639Z,61.42
2019-01-28T02:19:14.717Z,61.03
2019-01-28T02:21:46.440Z,61.69
2019-01-28T02:24:18.927Z,61.30
2019-01-28T02:26:50.468Z,60.92
2019-01-28T02:29:21.454Z,61.83
2019-01-28T02:31:52.433Z,62.03
2019-01-28T02:34:23.717Z,61.36
2019-01-28T02:36:54.680Z,61.41
2019-01-28T02:39:25.956Z,61.73
2019-01-28T02:42:00.463Z,61.65
2019-01-28T02:44:31.763Z,61.39
2019-01-28T02:47:03.445Z,60.94
2019-01-28T02:49:34.759Z,60.99
2019-01-28T02:52:06.476Z,60.74
2019-01-28T02:54:37.445Z,60.58
2019-01-28T02:57:08.562Z,60.48
2019-01-28T02:59:39.845Z,60.09
2019-01-28T03:02:11.113Z,60.04
2019-01-28T03:04:42.176Z,60.93
2019-01-28T03:07:13.641Z,60.26
2019-01-28T03:09:44.744Z,60.24
2019-01-28T03:12:16.064Z,60.56
2019-01-28T03:14:47.821Z,60.67
2019-01-28T03:17:19.279Z,60.67
2019-01-28T03:19:50.388Z,60.97
2019-01-28T03:22:21.630Z,60.24
2019-01-28T03:24:53.478Z,60.65
2019-01-28T03:27:24.796Z,60.26
2019-01-28T03:29:56.187Z,60.56
2019-01-28T03:32:27.506Z,60.65
2019-01-28T03:34:59.035Z,60.34
2019-01-28T03:37:30.579Z,59.73
2019-01-28T03:40:01.592Z,60.34
2019-01-28T03:42:33.559Z,60.32
2019-01-28T03:45:05.653Z,60.35
2019-01-28T03:47:36.708Z,60.85
2019-01-28T03:50:08.670Z,60.82
2019-01-28T03:52:40.011Z,61.34
2019-01-28T03:55:12.120Z,61.19
2019-01-28T03:57:43.539Z,60.96
2019-01-28T04:00:18.736Z,60.31
2019-01-28T04:02:49.815Z,60.52
2019-01-28T04:05:21.147Z,59.97
2019-01-28T04:07:52.415Z,60.47
2019-01-28T04:10:25.370Z,60.53
2019-01-28T04:12:56.939Z,60.75
2019-01-28T04:15:28.983Z,60.76
2019-01-28T04:17:59.969Z,60.25
2019-01-28T04:20:31.314Z,60.83
2019-01-28T04:23:03.539Z,60.72
2019-01-28T04:25:34.872Z,60.65
2019-01-28T04:28:06.460Z,60.85
2019-01-28T04:30:37.535Z,60.84
2019-01-28T04:33:08.927Z,61.46
2019-01-28T04:35:40.334Z,60.89
2019-01-28T04:38:11.861Z,61.50
2019-01-28T04:40:43.622Z,62.30
2019-01-28T04:43:15.213Z,62.51
2019-01-28T04:45:46.275Z,63.71
2019-01-28T04:48:20.718Z,64.32
2019-01-28T04:50:51.800Z,64.32
2019-01-28T04:53:23.250Z,64.52
2019-01-28T04:55:54.255Z,64.44
2019-01-28T04:58:25.750Z,64.55
2019-01-28T05:00:57.263Z,64.76
2019-01-28T05:03:28.798Z,64.26
2019-01-28T05:05:59.783Z,64.51
2019-01-28T05:08:30.996Z,64.80
2019-01-28T05:11:02.515Z,65.05
2019-01-28T05:13:34.528Z,64.69
2019-01-28T05:16:06.289Z,64.66
2019-01-28T05:18:39.247Z,65.11
2019-01-28T05:21:11.024Z,65.62
2019-01-28T05:23:42.520Z,65.30
2019-01-28T05:26:13.989Z,65.27
2019-01-28T05:28:45.552Z,65.49
2019-01-28T05:31:17.341Z,65.53
2019-01-28T05:33:48.745Z,65.78
2019-01-28T05:36:19.718Z,65.27
2019-01-28T05:38:51.398Z,65.54
2019-01-28T05:41:22.462Z,65.82
2019-01-28T05:43:53.785Z,66.04
2019-01-28T05:46:25.024Z,66.04
2019-01-28T05:48:56.066Z,66.17
2019-01-28T05:51:27.412Z,65.95
2019-01-28T05:53:59.062Z,65.73
2019-01-28T05:56:30.541Z,66.22
2019-01-28T05:59:01.520Z,66.08
2019-01-28T06:01:33.013Z,65.80
2019-01-28T06:04:04.667Z,65.89
2019-01-28T06:06:36.313Z,66.16
2019-01-28T06:09:10.426Z,66.17
2019-01-28T06:11:42.209Z,66.02
2019-01-28T06:14:13.684Z,66.35
2019-01-28T06:16:44.991Z,65.83
2019-01-28T06:19:16.469Z,66.12
2019-01-28T06:21:47.529Z,66.16
2019-01-28T06:24:19.667Z,67.10
2019-01-28T06:26:50.654Z,66.33
2019-01-28T06:29:22.012Z,66.30
2019-01-28T06:31:53.011Z,66.27
2019-01-28T06:34:24.883Z,66.28
2019-01-28T06:36:56.303Z,65.99
2019-01-28T06:39:27.761Z,65.64
2019-01-28T06:41:58.837Z,65.95
2019-01-28T06:44:30.108Z,66.10
2019-01-28T06:47:01.690Z,65.92
2019-01-28T06:49:32.936Z,66.47
2019-01-28T06:52:04.301Z,66.53
2019-01-28T06:54:36.336Z,66.46
2019-01-28T06:57:07.428Z,65.64
2019-01-28T06:59:38.471Z,65.87
2019-01-28T07:02:09.983Z,65.44
2019-01-28T07:04:41.058Z,65.72
2019-01-28T07:07:12.278Z,66.13
2019-01-28T07:09:43.261Z,66.00
2019-01-28T07:12:14.878Z,65.89
2019-01-28T07:14:46.516Z,65.84
2019-01-28T07:17:18.292Z,65.66
2019-01-28T07:19:49.775Z,65.89
2019-01-28T07:22:21.264Z,65.76
2019-01-28T07:24:52.638Z,65.82
2019-01-28T07:27:23.637Z,66.49
2019-01-28T07:29:54.673Z,66.21
2019-01-28T07:32:25.815Z,66.36
2019-01-28T07:34:57.409Z,66.18
2019-01-28T07:37:28.531Z,66.53
2019-01-28T07:39:59.685Z,66.45
2019-01-28T07:42:31.025Z,66.10
2019-01-28T07:45:02.510Z,65.84
2019-01-28T07:47:33.540Z,66.70
2019-01-28T07:50:04.973Z,66.44
2019-01-28T07:52:36.444Z,66.89
2019-01-28T07:55:08.247Z,66.43
2019-01-28T07:57:39.619Z,66.61
2019-01-28T08:00:16.299Z,66.64
2019-01-28T08:02:47.693Z,66.59
2019-01-28T08:05:20.281Z,66.25
2019-01-28T08:07:51.416Z,66.82
2019-01-28T08:10:22.650Z,66.57
2019-01-28T08:12:59.693Z,66.49
2019-01-28T08:15:30.851Z,66.34
2019-01-28T08:18:10.506Z,66.35
2019-01-28T08:20:39.300Z,66.73
2019-01-28T08:23:10.614Z,66.59
2019-01-28T08:25:42.024Z,66.87
2019-01-28T08:28:13.177Z,67.61
2019-01-28T08:30:45.096Z,67.45
2019-01-28T08:33:17.649Z,67.54
2019-01-28T08:35:49.169Z,67.59
2019-01-28T08:38:20.539Z,67.01
2019-01-28T08:40:51.951Z,66.90
2019-01-28T08:43:23.402Z,67.09
2019-01-28T08:45:55.344Z,67.19
2019-01-28T08:48:26.864Z,67.06
2019-01-28T08:50:58.269Z,66.90
2019-01-28T08:53:29.676Z,67.04
2019-01-28T08:56:00.831Z,66.56
2019-01-28T08:58:32.086Z,66.67
2019-01-28T09:01:03.783Z,66.69
2019-01-28T09:03:34.902Z,66.73
2019-01-28T09:06:06.483Z,66.80
2019-01-28T09:08:39.607Z,66.49
2019-01-28T09:11:11.586Z,66.80
2019-01-28T09:13:42.939Z,66.90
2019-01-28T09:16:14.286Z,65.92
2019-01-28T09:18:45.490Z,66.58
2019-01-28T09:21:16.812Z,67.29
2019-01-28T09:23:48.401Z,67.28
2019-01-28T09:26:19.999Z,66.65
2019-01-28T09:28:51.048Z,66.73
2019-01-28T09:31:22.189Z,66.87
2019-01-28T09:33:53.179Z,67.02
2019-01-28T09:36:24.654Z,67.05
2019-01-28T09:38:56.020Z,67.47
2019-01-28T09:41:27.335Z,67.71
2019-01-28T09:43:58.790Z,67.07
2019-01-28T09:46:30.140Z,67.62
2019-01-28T09:49:01.124Z,66.75
2019-01-28T09:51:32.178Z,66.68
2019-01-28T09:54:03.565Z,66.76
2019-01-28T09:56:34.701Z,66.42
2019-01-28T09:59:06.699Z,65.86
2019-01-28T10:01:38.262Z,66.80
2019-01-28T10:04:09.906Z,66.69
2019-01-28T10:06:41.220Z,67.11
2019-01-28T10:09:12.278Z,66.96
2019-01-28T10:11:43.900Z,67.05
2019-01-28T10:14:15.207Z,67.95
2019-01-28T10:16:46.245Z,67.96
2019-01-28T10:19:17.733Z,67.30
2019-01-28T10:21:48.784Z,67.07
2019-01-28T10:24:23.412Z,67.02
2019-01-28T10:26:53.828Z,67.62
2019-01-28T10:29:25.543Z,67.63
2019-01-28T10:31:57.135Z,67.62
2019-01-28T10:34:28.489Z,68.35
2019-01-28T10:36:59.822Z,68.01
2019-01-28T10:39:31.041Z,67.60
2019-01-28T10:42:02.098Z,67.28
2019-01-28T10:44:33.165Z,67.50
2019-01-28T10:47:04.717Z,67.57
2019-01-28T10:49:35.838Z,67.13
2019-01-28T10:52:07.283Z,67.08
2019-01-28T10:54:38.593Z,67.51
2019-01-28T10:57:10.984Z,67.31
2019-01-28T10:59:42.507Z,66.85
2019-01-28T11:02:14.169Z,66.90
2019-01-28T11:04:45.959Z,66.50
2019-01-28T11:07:17.377Z,67.90
2019-01-28T11:09:48.878Z,67.27
2019-01-28T11:12:20.944Z,67.62
2019-01-28T11:14:52.425Z,67.83
2019-01-28T11:17:23.774Z,68.93
2019-01-28T11:19:55.436Z,68.56
2019-01-28T11:22:26.826Z,68.62
2019-01-28T11:24:58.068Z,68.66
2019-01-28T11:27:29.052Z,68.96
2019-01-28T11:30:00.371Z,68.72
2019-01-28T11:32:31.832Z,68.11
2019-01-28T11:35:03.076Z,68.07
2019-01-28T11:37:35.563Z,68.16
2019-01-28T11:40:08.769Z,68.54
2019-01-28T11:42:40.293Z,68.09
2019-01-28T11:45:23.510Z,68.33
2019-01-28T11:47:54.531Z,68.34
2019-01-28T11:50:25.965Z,68.02
2019-01-28T11:52:57.276Z,68.06
2019-01-28T11:55:28.327Z,68.36
2019-01-28T11:58:00.057Z,68.55
2019-01-28T12:00:52.026Z,67.97
2019-01-28T12:03:23.295Z,68.11
2019-01-28T12:05:54.665Z,68.26
2019-01-28T12:08:25.959Z,67.99
2019-01-28T12:10:57.402Z,67.77
2019-01-28T12:13:29.019Z,67.60
2019-01-28T12:16:00.621Z,67.63
2019-01-28T12:18:31.762Z,67.42
2019-01-28T12:21:06.028Z,67.04
2019-01-28T12:23:37.649Z,67.03
2019-01-28T12:26:08.948Z,68.62
2019-01-28T12:28:41.859Z,68.32
2019-01-28T12:31:15.078Z,68.13
2019-01-28T12:33:47.636Z,67.94
2019-01-28T12:36:18.959Z,67.88
2019-01-28T12:38:50.301Z,67.80
2019-01-28T12:41:21.673Z,67.66
2019-01-28T12:43:52.658Z,67.46
2019-01-28T12:46:27.898Z,67.68
2019-01-28T12:48:59.297Z,67.44
2019-01-28T12:51:30.615Z,67.76
2019-01-28T12:54:02.285Z,68.25
2019-01-28T12:56:33.403Z,68.00
2019-01-28T12:59:09.047Z,68.83
2019-01-28T13:01:37.977Z,68.50
2019-01-28T13:04:09.348Z,68.79
2019-01-28T13:06:40.657Z,69.02
2019-01-28T13:09:12.046Z,69.37
2019-01-28T13:11:43.459Z,69.36
2019-01-28T13:14:14.593Z,68.93
2019-01-28T13:16:45.761Z,68.59
2019-01-28T13:19:17.193Z,68.28
2019-01-28T13:21:48.371Z,68.44
2019-01-28T13:24:20.814Z,68.25
2019-01-28T13:26:52.181Z,68.66
2019-01-28T13:29:23.382Z,68.56
2019-01-28T13:31:54.642Z,68.67
2019-01-28T13:34:26.847Z,68.36
2019-01-28T13:36:58.301Z,68.51
2019-01-28T13:39:30.251Z,68.14
2019-01-28T13:42:02.069Z,68.43
2019-01-28T13:44:33.597Z,67.95
2019-01-28T13:47:04.790Z,68.14
2019-01-28T13:49:38.443Z,68.15
2019-01-28T13:52:10.072Z,68.78
2019-01-28T13:54:42.338Z,69.00
2019-01-28T13:57:13.777Z,68.39
2019-01-28T13:59:44.839Z,68.49
2019-01-28T14:02:17.698Z,68.87
2019-01-28T14:04:49.459Z,68.83
2019-01-28T14:07:20.883Z,68.35
2019-01-28T14:09:53.107Z,68.54
2019-01-28T14:12:24.046Z,68.88
2019-01-28T14:14:55.160Z,69.22
2019-01-28T14:17:26.142Z,69.54
2019-01-28T14:19:57.319Z,69.15
2019-01-28T14:22:28.535Z,69.41
2019-01-28T14:25:00.095Z,68.94
2019-01-28T14:27:31.439Z,69.20
2019-01-28T14:30:02.899Z,69.33
2019-01-28T14:32:34.491Z,69.08
2019-01-28T14:35:06.262Z,69.86
2019-01-28T14:37:37.718Z,69.31
2019-01-28T14:40:12.203Z,68.81
2019-01-28T14:42:43.372Z,69.17
2019-01-28T14:45:14.979Z,69.98
2019-01-28T14:47:47.335Z,69.97
2019-01-28T14:50:28.025Z,69.32
2019-01-28T14:52:59.723Z,69.39
2019-01-28T14:55:31.207Z,69.84
2019-01-28T14:58:02.425Z,69.87
2019-01-28T15:00:36.608Z,69.22
2019-01-28T15:03:07.850Z,69.34
2019-01-28T15:05:39.952Z,69.72
2019-01-28T15:08:12.017Z,69.75
2019-01-28T15:10:43.096Z,68.50
2019-01-28T15:13:14.218Z,68.69
2019-01-28T15:15:47.701Z,70.13
2019-01-28T15:18:18.753Z,70.41
2019-01-28T15:20:50.419Z,70.04
2019-01-28T15:23:21.387Z,70.64
2019-01-28T15:25:52.631Z,70.26
2019-01-28T15:28:24.023Z,71.47
2019-01-28T15:30:55.742Z,71.19
2019-01-28T15:33:26.850Z,70.99
2019-01-28T15:35:58.250Z,71.18
2019-01-28T15:38:29.407Z,70.80
2019-01-28T15:41:00.614Z,70.87
2019-01-28T15:43:31.589Z,71.60
2019-01-28T15:46:02.927Z,71.54
2019-01-28T15:48:34.211Z,71.45
2019-01-28T15:51:05.834Z,71.04
2019-01-28T15:53:37.193Z,70.85
2019-01-28T15:56:08.307Z,71.62
2019-01-28T15:58:40.217Z,71.62
2019-01-28T16:01:12.014Z,71.46
2019-01-28T16:03:43.748Z,71.35
2019-01-28T16:06:15.322Z,71.50
2019-01-28T16:08:46.905Z,71.65
2019-01-28T16:11:18.421Z,70.97
2019-01-28T16:13:49.779Z,70.70
2019-01-28T16:16:21.317Z,70.90
2019-01-28T16:18:52.285Z,70.84
2019-01-28T16:21:23.775Z,70.71
2019-01-28T16:23:56.159Z,71.50
2019-01-28T16:26:28.079Z,70.67
2019-01-28T16:28:59.676Z,70.93
2019-01-28T16:31:31.036Z,70.55
2019-01-28T16:34:02.506Z,71.23
2019-01-28T16:36:33.678Z,71.83
2019-01-28T16:39:07.561Z,71.43
2019-01-28T16:41:38.914Z,71.70
2019-01-28T16:44:10.215Z,71.96
2019-01-28T16:46:41.642Z,71.44
2019-01-28T16:49:14.089Z,71.22
2019-01-28T16:51:45.233Z,70.91
2019-01-28T16:54:16.845Z,70.68
2019-01-28T16:56:48.853Z,71.16
2019-01-28T16:59:21.400Z,71.23
2019-01-28T17:01:52.943Z,70.81
2019-01-28T17:04:26.240Z,70.77
2019-01-28T17:06:57.328Z,70.68
2019-01-28T17:09:28.329Z,71.74
2019-01-28T17:11:59.467Z,71.18
2019-01-28T17:14:31.478Z,70.91
2019-01-28T17:17:02.641Z,70.72
2019-01-28T17:19:33.639Z,70.74
2019-01-28T17:22:06.592Z,70.87
2019-01-28T17:24:37.841Z,70.88
2019-01-28T17:27:09.500Z,69.95
2019-01-28T17:29:40.456Z,70.75
2019-01-28T17:32:11.995Z,70.84
2019-01-28T17:34:43.856Z,71.30
2019-01-28T17:37:15.242Z,71.36
2019-01-28T17:39:46.695Z,71.30
2019-01-28T17:42:18.837Z,71.82
2019-01-28T17:44:50.589Z,72.23
2019-01-28T17:47:21.794Z,71.58
2019-01-28T17:50:00.826Z,71.59
2019-01-28T17:52:26.170Z,71.75
2019-01-28T17:54:57.523Z,71.07
2019-01-28T17:57:28.960Z,71.09
2019-01-28T18:00:00.275Z,71.17
2019-01-28T18:02:31.910Z,71.48
2019-01-28T18:05:03.234Z,71.27
2019-01-28T18:07:34.232Z,70.34
2019-01-28T18:10:07.708Z,70.70
2019-01-28T18:12:39.136Z,70.94
2019-01-28T18:15:15.053Z,70.86
2019-01-28T18:17:46.670Z,70.78
2019-01-28T18:20:18.986Z,70.40
2019-01-28T18:22:50.722Z,71.33
2019-01-28T18:25:27.616Z,71.05
2019-01-28T18:27:58.899Z,71.09
2019-01-28T18:30:44.586Z,71.50
2019-01-28T18:33:15.893Z,72.03
2019-01-28T18:35:47.350Z,71.89
2019-01-28T18:38:19.407Z,71.47
2019-01-28T18:40:50.765Z,71.15
2019-01-28T18:43:21.808Z,70.62
2019-01-28T18:45:53.132Z,71.09
2019-01-28T18:48:24.491Z,71.52
2019-01-28T18:50:59.608Z,71.40
2019-01-28T18:53:29.278Z,71.69
2019-01-28T18:56:00.596Z,71.82
2019-01-28T18:58:31.701Z,71.45
2019-01-28T19:01:03.082Z,71.02
2019-01-28T19:03:34.509Z,70.86
2019-01-28T19:06:15.608Z,70.92
2019-01-28T19:09:01.164Z,71.03
2019-01-28T19:11:43.547Z,71.63
2019-01-28T19:14:32.580Z,70.69
2019-01-28T19:17:23.481Z,70.88
2019-01-28T19:20:32.443Z,70.81
2019-01-28T19:23:03.957Z,70.31
2019-01-28T19:25:35.357Z,70.15
2019-01-28T19:28:06.981Z,70.45
2019-01-28T19:30:38.347Z,69.23
2019-01-28T19:33:09.691Z,68.95
2019-01-28T19:35:41.342Z,69.19
2019-01-28T19:38:12.932Z,68.91
2019-01-28T19:40:44.760Z,68.93
2019-01-28T19:43:16.241Z,69.15
2019-01-28T19:45:47.680Z,69.25
2019-01-28T19:48:19.578Z,69.70
2019-01-28T19:50:50.912Z,68.87
2019-01-28T19:53:22.209Z,68.82
2019-01-28T19:55:54.513Z,69.30
2019-01-28T19:58:26.065Z,69.21
2019-01-28T20:00:58.037Z,69.92
2019-01-28T20:03:29.005Z,69.39
2019-01-28T20:06:00.659Z,69.60
2019-01-28T20:08:31.920Z,68.90
2019-01-28T20:11:02.917Z,69.38
2019-01-28T20:13:35.088Z,68.34
2019-01-28T20:16:06.401Z,68.86
2019-01-28T20:18:37.740Z,68.05
2019-01-28T20:21:09.325Z,68.08
2019-01-28T20:23:41.272Z,68.20
2019-01-28T20:26:13.369Z,68.36
2019-01-28T20:28:44.655Z,68.34
2019-01-28T20:31:15.649Z,68.72
2019-01-28T20:33:48.188Z,69.06
2019-01-28T20:36:19.326Z,68.34
2019-01-28T20:38:50.307Z,67.43
2019-01-28T20:41:21.657Z,67.88
2019-01-28T20:43:53.187Z,68.07
2019-01-28T20:46:25.020Z,69.02
2019-01-28T20:48:56.019Z,68.98
2019-01-28T20:51:32.564Z,68.68
2019-01-28T20:54:00.379Z,68.09
2019-01-28T20:56:32.083Z,68.32
2019-01-28T20:59:03.382Z,68.33
2019-01-28T21:01:34.887Z,68.35
2019-01-28T21:04:06.502Z,68.68
2019-01-28T21:06:38.080Z,68.14
2019-01-28T21:09:10.068Z,68.11
2019-01-28T21:11:41.117Z,67.86
2019-01-28T21:14:13.230Z,68.07
2019-01-28T21:16:44.305Z,68.53
2019-01-28T21:19:15.670Z,67.85
2019-01-28T21:21:47.427Z,67.42
2019-01-28T21:24:18.726Z,66.80
2019-01-28T21:26:50.288Z,66.76
2019-01-28T21:29:21.742Z,66.10
2019-01-28T21:31:53.246Z,66.48
2019-01-28T21:34:24.838Z,66.39
2019-01-28T21:37:01.525Z,65.87
2019-01-28T21:39:33.589Z,66.25
2019-01-28T21:42:04.819Z,66.86
2019-01-28T21:44:36.347Z,66.85
2019-01-28T21:47:07.849Z,67.50
2019-01-28T21:49:39.878Z,67.35
2019-01-28T21:52:11.646Z,67.71
2019-01-28T21:54:43.164Z,68.17
2019-01-28T21:57:14.180Z,68.18
2019-01-28T21:59:45.994Z,67.73
2019-01-28T22:02:17.429Z,69.05
2019-01-28T22:04:48.641Z,68.79
2019-01-28T22:07:19.617Z,68.67
2019-01-28T22:09:50.821Z,68.65
2019-01-28T22:12:22.117Z,68.23
2019-01-28T22:14:53.347Z,67.64
2019-01-28T22:17:24.334Z,67.83
2019-01-28T22:19:55.647Z,67.32
2019-01-28T22:22:27.469Z,67.80
2019-01-28T22:24:59.057Z,68.52
2019-01-28T22:27:30.451Z,67.81
2019-01-28T22:30:01.476Z,67.12
2019-01-28T22:32:33.032Z,67.66
2019-01-28T22:35:05.240Z,67.22
2019-01-28T22:37:36.472Z,66.76
2019-01-28T22:40:10.238Z,66.91
2019-01-28T22:42:41.983Z,66.47
2019-01-28T22:45:15.446Z,66.79
2019-01-28T22:47:47.255Z,66.54
2019-01-28T22:50:18.578Z,66.20
2019-01-28T22:52:49.892Z,66.01
2019-01-28T22:55:22.400Z,65.62
2019-01-28T22:57:54.134Z,65.72
2019-01-28T23:00:51.567Z,65.99
2019-01-28T23:03:26.344Z,65.88
2019-01-28T23:05:57.578Z,65.44
2019-01-28T23:08:28.813Z,65.62
2019-01-28T23:11:00.314Z,65.87
2019-01-28T23:13:31.283Z,65.16
2019-01-28T23:16:02.664Z,66.19
2019-01-28T23:18:34.233Z,65.82
2019-01-28T23:21:05.357Z,64.91
2019-01-28T23:23:36.639Z,65.46
2019-01-28T23:26:08.188Z,65.79
2019-01-28T23:28:39.152Z,65.90
2019-01-28T23:31:10.569Z,65.29
2019-01-28T23:33:41.843Z,65.30
2019-01-28T23:36:12.997Z,65.58
2019-01-28T23:38:44.226Z,65.97
2019-01-28T23:41:15.580Z,65.47
2019-01-28T23:43:47.004Z,65.96
2019-01-28T23:46:18.601Z,65.59
2019-01-28T23:48:50.138Z,65.87
2019-01-28T23:51:22.117Z,65.74
2019-01-28T23:53:53.664Z,66.65
2019-01-28T23:56:24.960Z,66.21
2019-01-28T23:58:56.027Z,66.25
